createdAt,value
2022-09-03T00:00:15.051Z,43.08
2022-09-03T00:04:29.271Z,42.81
2022-09-03T00:08:39.036Z,43.15
2022-09-03T00:12:44.768Z,43.12
2022-09-03T00:17:00.716Z,43.24
2022-09-03T00:21:08.774Z,43.02
2022-09-03T00:25:29.142Z,43.26
2022-09-03T00:29:41.412Z,43.41
2022-09-03T00:33:46.809Z,43.35
2022-09-03T00:37:49.143Z,43.71
2022-09-03T00:41:59.584Z,43.67
2022-09-03T00:46:07.433Z,44.10
2022-09-03T00:50:29.976Z,44.11
2022-09-03T00:54:40.577Z,43.50
2022-09-03T00:59:01.706Z,43.80
2022-09-03T01:03:11.119Z,43.74
2022-09-03T01:07:18.538Z,43.71
2022-09-03T01:11:51.561Z,43.46
2022-09-03T01:16:21.670Z,43.30
2022-09-03T01:20:35.179Z,43.23
2022-09-03T01:24:49.737Z,43.22
2022-09-03T01:29:13.053Z,43.35
2022-09-03T01:33:38.403Z,43.66
2022-09-03T01:37:54.169Z,43.38
2022-09-03T01:42:16.423Z,43.49
2022-09-03T01:46:29.515Z,43.46
2022-09-03T01:51:22.779Z,43.79
2022-09-03T01:55:30.083Z,43.89
2022-09-03T01:59:38.227Z,44.13
2022-09-03T02:03:44.727Z,44.05
2022-09-03T02:07:49.463Z,44.29
2022-09-03T02:11:59.580Z,43.83
2022-09-03T02:16:07.746Z,44.33
2022-09-03T02:20:12.054Z,44.26
2022-09-03T02:24:14.114Z,44.33
2022-09-03T02:28:17.735Z,43.99
2022-09-03T02:32:19.494Z,43.75
2022-09-03T02:36:27.739Z,43.88
2022-09-03T02:40:29.435Z,44.15
2022-09-03T02:44:35.662Z,44.07
2022-09-03T02:48:39.509Z,43.92
2022-09-03T02:52:41.139Z,44.19
2022-09-03T02:56:43.824Z,44.11
2022-09-03T03:00:45.472Z,44.22
2022-09-03T03:04:47.112Z,44.36
2022-09-03T03:08:50.236Z,44.32
2022-09-03T03:12:51.839Z,44.44
2022-09-03T03:16:53.465Z,44.32
2022-09-03T03:20:55.504Z,44.61
2022-09-03T03:24:57.809Z,44.58
2022-09-03T03:29:01.574Z,45.01
2022-09-03T03:33:03.840Z,44.92
2022-09-03T03:37:05.832Z,44.93
2022-09-03T03:41:13.165Z,45.10
2022-09-03T03:45:14.778Z,45.24
2022-09-03T03:49:16.335Z,45.55
2022-09-03T03:53:18.147Z,46.07
2022-09-03T03:57:20.958Z,45.90
2022-09-03T04:01:25.406Z,46.23
2022-09-03T04:05:27.046Z,46.45
2022-09-03T04:09:35.284Z,46.03
2022-09-03T04:13:39.585Z,47.10
2022-09-03T04:17:41.179Z,46.85
2022-09-03T04:21:43.071Z,46.53
2022-09-03T04:25:45.053Z,46.92
2022-09-03T04:29:50.254Z,47.32
2022-09-03T04:33:51.834Z,47.40
2022-09-03T04:37:55.216Z,47.60
2022-09-03T04:41:57.659Z,47.61
2022-09-03T04:46:04.411Z,47.47
2022-09-03T04:50:06.639Z,47.42
2022-09-03T04:54:09.985Z,48.36
2022-09-03T04:58:11.691Z,47.94
2022-09-03T05:02:15.119Z,47.83
2022-09-03T05:06:17.479Z,48.13
2022-09-03T05:10:22.616Z,48.39
2022-09-03T05:14:24.340Z,48.43
2022-09-03T05:18:25.996Z,48.61
2022-09-03T05:22:27.583Z,48.16
2022-09-03T05:26:31.528Z,48.47
2022-09-03T05:30:33.161Z,48.17
2022-09-03T05:34:34.774Z,48.59
2022-09-03T05:38:36.922Z,48.36
2022-09-03T05:42:39.130Z,48.64
2022-09-03T05:46:40.789Z,48.70
2022-09-03T05:50:42.354Z,48.60
2022-09-03T05:54:43.911Z,48.86
2022-09-03T05:58:48.196Z,49.15
2022-09-03T06:02:53.695Z,48.95
2022-09-03T06:06:56.265Z,49.86
2022-09-03T06:10:59.368Z,52.75
2022-09-03T06:15:01.016Z,58.56
2022-09-03T06:19:03.883Z,62.59
2022-09-03T06:23:05.437Z,66.22
2022-09-03T06:27:08.598Z,66.57
2022-09-03T06:31:14.691Z,69.87
2022-09-03T06:35:16.695Z,71.14
2022-09-03T06:39:18.436Z,72.74
2022-09-03T06:43:20.281Z,77.85
2022-09-03T06:47:21.952Z,78.50
2022-09-03T06:51:27.159Z,78.07
2022-09-03T06:55:28.865Z,79.38
2022-09-03T06:59:30.444Z,79.08
2022-09-03T07:03:32.684Z,78.15
2022-09-03T07:07:34.465Z,82.70
2022-09-03T07:11:37.285Z,84.21
2022-09-03T07:15:40.266Z,83.53
2022-09-03T07:19:41.748Z,85.08
2022-09-03T07:23:44.172Z,82.93
2022-09-03T07:27:47.365Z,83.84
2022-09-03T07:31:53.590Z,83.90
2022-09-03T07:35:55.291Z,85.83
2022-09-03T07:39:56.936Z,85.42
2022-09-03T07:43:59.765Z,89.09
2022-09-03T07:48:01.483Z,90.15
2022-09-03T07:52:03.299Z,90.31
2022-09-03T07:56:10.072Z,93.57
2022-09-03T08:00:13.513Z,93.38
2022-09-03T08:04:15.140Z,93.00
2022-09-03T08:08:17.951Z,94.53
2022-09-03T08:12:21.414Z,93.98
2022-09-03T08:16:23.243Z,89.77
2022-09-03T08:20:24.969Z,85.06
2022-09-03T08:24:26.742Z,82.80
2022-09-03T08:28:28.652Z,81.48
2022-09-03T08:32:30.504Z,81.03
2022-09-03T08:36:34.663Z,82.08
2022-09-03T08:40:38.240Z,82.86
2022-09-03T08:44:50.474Z,81.95
2022-09-03T08:48:53.114Z,82.22
2022-09-03T08:53:14.458Z,81.42
2022-09-03T08:57:19.330Z,78.97
2022-09-03T09:02:11.151Z,78.77
2022-09-03T09:06:56.072Z,78.52
2022-09-03T09:11:08.759Z,77.17
2022-09-03T09:15:13.685Z,75.06
2022-09-03T09:19:31.802Z,76.00
2022-09-03T09:23:43.582Z,76.66
2022-09-03T09:28:03.197Z,76.16
2022-09-03T09:32:09.120Z,76.38
2022-09-03T09:36:16.486Z,75.75
2022-09-03T09:40:33.945Z,75.95
2022-09-03T09:44:37.061Z,77.60
2022-09-03T09:48:48.476Z,79.17
2022-09-03T09:53:08.349Z,80.12
2022-09-03T09:57:26.152Z,79.23
2022-09-03T10:01:30.467Z,78.44
2022-09-03T10:05:37.873Z,76.04
2022-09-03T10:09:39.436Z,74.04
2022-09-03T10:13:45.745Z,68.59
2022-09-03T10:18:00.686Z,67.86
2022-09-03T10:22:10.167Z,67.70
2022-09-03T10:26:17.042Z,66.17
2022-09-03T10:30:18.848Z,65.38
2022-09-03T10:34:41.760Z,63.29
2022-09-03T10:38:43.978Z,62.80
2022-09-03T10:43:18.639Z,62.05
2022-09-03T10:47:43.273Z,63.45
2022-09-03T10:51:59.594Z,60.42
2022-09-03T10:56:24.951Z,59.27
2022-09-03T11:00:30.874Z,60.02
2022-09-03T11:04:52.428Z,62.07
2022-09-03T11:09:06.485Z,61.20
2022-09-03T11:13:23.031Z,60.01
2022-09-03T11:17:32.317Z,59.19
2022-09-03T11:21:37.839Z,59.33
2022-09-03T11:25:49.107Z,59.26
2022-09-03T11:30:09.725Z,59.65
2022-09-03T11:34:31.962Z,57.93
2022-09-03T11:38:35.287Z,58.19
2022-09-03T11:42:38.369Z,59.11
2022-09-03T11:46:46.194Z,60.57
2022-09-03T11:50:55.673Z,56.73
2022-09-03T11:55:00.574Z,54.65
2022-09-03T11:59:14.401Z,51.99
2022-09-03T12:03:18.852Z,49.80
2022-09-03T12:07:42.036Z,49.80
2022-09-03T12:12:09.361Z,50.93
2022-09-03T12:21:03.535Z,47.41
2022-09-03T12:25:16.954Z,48.98
2022-09-03T12:29:31.129Z,49.55
2022-09-03T12:33:41.863Z,49.22
2022-09-03T12:42:16.981Z,49.89
2022-09-03T12:46:18.876Z,47.94
2022-09-03T12:50:24.915Z,48.45
2022-09-03T12:54:27.726Z,48.76
2022-09-03T12:58:40.401Z,47.62
2022-09-03T13:03:08.082Z,46.79
2022-09-03T13:07:23.787Z,46.41
2022-09-03T13:11:26.188Z,46.35
2022-09-03T13:15:29.537Z,46.40
2022-09-03T13:19:37.065Z,46.24
2022-09-03T13:23:57.443Z,45.15
2022-09-03T13:28:23.442Z,44.73
2022-09-03T13:32:27.974Z,45.55
2022-09-03T13:36:49.269Z,46.29
2022-09-03T13:41:03.909Z,43.42
2022-09-03T13:45:31.602Z,38.67
2022-09-03T13:49:59.350Z,39.27
2022-09-03T13:54:13.477Z,39.19
2022-09-03T13:58:33.974Z,40.55
2022-09-03T14:03:16.233Z,40.99
2022-09-03T14:07:25.731Z,42.52
2022-09-03T14:11:35.193Z,43.03
2022-09-03T14:15:45.904Z,43.44
2022-09-03T14:20:01.248Z,43.79
2022-09-03T14:24:34.656Z,43.46
2022-09-03T14:28:40.819Z,43.76
2022-09-03T14:32:55.064Z,43.52
2022-09-03T14:37:14.812Z,42.45
2022-09-03T14:41:52.491Z,41.42
2022-09-03T14:46:28.154Z,41.43
2022-09-03T14:51:04.935Z,41.15
2022-09-03T14:55:35.941Z,41.37
2022-09-03T14:59:43.805Z,41.47
2022-09-03T15:04:20.236Z,41.81
2022-09-03T15:08:46.724Z,42.35
2022-09-03T15:13:10.282Z,43.52
2022-09-03T15:17:41.097Z,43.97
2022-09-03T15:21:55.427Z,44.85
2022-09-03T15:26:19.844Z,46.04
2022-09-03T15:30:21.630Z,46.64
2022-09-03T15:34:34.496Z,46.77
2022-09-03T15:38:51.391Z,48.20
2022-09-03T15:42:58.733Z,48.42
2022-09-03T15:47:05.342Z,49.12
2022-09-03T15:51:45.764Z,49.46
2022-09-03T15:55:48.299Z,50.01
2022-09-03T15:59:49.811Z,50.88
2022-09-03T16:04:01.728Z,50.34
2022-09-03T16:08:19.988Z,50.88
2022-09-03T16:12:46.002Z,51.17
2022-09-03T16:17:28.905Z,51.83
2022-09-03T16:21:30.467Z,51.83
2022-09-03T16:25:38.652Z,52.36
2022-09-03T16:29:40.571Z,52.00
2022-09-03T16:34:18.944Z,53.38
2022-09-03T16:38:30.000Z,53.65
2022-09-03T16:42:44.948Z,54.93
2022-09-03T16:47:00.282Z,56.13
2022-09-03T16:51:29.257Z,57.34
2022-09-03T16:56:00.200Z,57.54
2022-09-03T17:00:21.031Z,59.89
2022-09-03T17:04:22.539Z,60.39
2022-09-03T17:08:32.609Z,61.22
2022-09-03T17:12:52.529Z,62.09
2022-09-03T17:17:16.406Z,62.17
2022-09-03T17:21:33.965Z,62.21
2022-09-03T17:26:06.528Z,63.11
2022-09-03T17:30:11.088Z,63.94
2022-09-03T17:34:54.846Z,65.91
2022-09-03T17:39:08.673Z,65.53
2022-09-03T17:43:42.304Z,66.22
2022-09-03T17:47:53.816Z,66.98
2022-09-03T17:52:14.150Z,67.77
2022-09-03T17:56:29.710Z,68.29
2022-09-03T18:00:38.176Z,69.09
2022-09-03T18:04:49.077Z,70.11
2022-09-03T18:09:17.033Z,71.56
2022-09-03T18:13:40.205Z,71.52
2022-09-03T18:17:51.611Z,72.15
2022-09-03T18:22:12.462Z,72.51
2022-09-03T18:26:44.492Z,73.24
2022-09-03T18:31:04.950Z,73.00
2022-09-03T18:35:27.237Z,74.03
2022-09-03T18:39:48.167Z,74.65
2022-09-03T18:44:57.859Z,75.75
2022-09-03T18:49:47.719Z,75.95
2022-09-03T18:54:14.314Z,76.52
2022-09-03T18:58:54.403Z,77.44
2022-09-03T19:03:48.219Z,78.15
2022-09-03T19:08:24.569Z,78.66
2022-09-03T19:12:59.027Z,78.75
2022-09-03T19:17:29.502Z,79.09
2022-09-03T19:22:04.473Z,80.08
2022-09-03T19:26:46.459Z,80.54
2022-09-03T19:31:24.020Z,81.51
2022-09-03T19:35:59.742Z,81.83
2022-09-03T19:40:59.019Z,82.69
2022-09-03T19:45:31.044Z,82.03
2022-09-03T19:50:18.633Z,82.80
2022-09-03T19:54:42.681Z,82.49
2022-09-03T19:59:16.748Z,83.24
2022-09-03T20:03:37.539Z,83.59
2022-09-03T20:07:58.315Z,84.11
2022-09-03T20:12:07.356Z,84.67
2022-09-03T20:16:32.903Z,85.38
2022-09-03T20:20:58.071Z,86.20
2022-09-03T20:25:16.179Z,86.81
2022-09-03T20:29:34.187Z,87.27
2022-09-03T20:33:49.452Z,87.94
2022-09-03T20:38:22.292Z,88.65
2022-09-03T20:42:43.939Z,89.73
2022-09-03T20:47:07.325Z,90.35
2022-09-03T20:51:22.854Z,91.38
2022-09-03T20:55:29.578Z,92.22
2022-09-03T20:59:53.244Z,92.81
2022-09-03T21:04:04.612Z,93.36
2022-09-03T21:08:25.318Z,94.92
2022-09-03T21:12:51.393Z,95.52
2022-09-03T21:17:06.049Z,96.20
2022-09-03T21:21:36.263Z,96.36
2022-09-03T21:25:44.997Z,96.98
2022-09-03T21:29:58.255Z,98.05
2022-09-03T21:34:09.765Z,98.90
2022-09-03T21:38:19.208Z,99.65
2022-09-03T21:42:36.618Z,99.51
2022-09-03T21:46:48.245Z,99.76
2022-09-03T21:51:00.140Z,100.00
2022-09-03T21:55:19.215Z,100.00
2022-09-03T21:59:29.923Z,100.00
2022-09-03T22:03:31.594Z,100.00
2022-09-03T22:08:30.716Z,100.00
2022-09-03T22:12:50.418Z,100.00
2022-09-03T22:17:02.875Z,100.00
2022-09-03T22:21:11.445Z,100.00
2022-09-03T22:25:21.416Z,100.00
2022-09-03T22:29:55.071Z,100.00
2022-09-03T22:34:21.177Z,100.00
2022-09-03T22:38:39.661Z,100.00
2022-09-03T22:43:13.850Z,100.00
2022-09-03T22:47:30.199Z,100.00
2022-09-03T22:52:14.102Z,100.00
2022-09-03T22:56:22.366Z,100.00
2022-09-03T23:00:24.147Z,100.00
2022-09-03T23:04:31.484Z,100.00
2022-09-03T23:08:49.929Z,100.00
2022-09-03T23:13:17.737Z,100.00
2022-09-03T23:21:41.522Z,100.00
2022-09-03T23:25:49.580Z,100.00
2022-09-03T23:29:54.948Z,100.00
2022-09-03T23:33:57.341Z,100.00
2022-09-03T23:38:23.177Z,100.00
2022-09-03T23:42:39.973Z,100.00
2022-09-03T23:47:07.655Z,100.00
2022-09-03T23:51:34.145Z,100.00
2022-09-03T23:56:05.240Z,100.00
